createdAt,value
2023-04-09T00:00:23.307Z,84.71
2023-04-09T00:01:23.285Z,84.75
2023-04-09T00:02:23.293Z,84.75
2023-04-09T00:03:23.358Z,84.85
2023-04-09T00:04:23.298Z,84.75
2023-04-09T00:05:23.246Z,84.71
2023-04-09T00:06:23.274Z,84.30
2023-04-09T00:07:23.237Z,84.40
2023-04-09T00:08:23.230Z,84.71
2023-04-09T00:09:23.212Z,85.06
2023-04-09T00:10:23.224Z,84.95
2023-04-09T00:11:23.247Z,84.95
2023-04-09T00:12:23.200Z,85.06
2023-04-09T00:13:31.949Z,85.57
2023-04-09T00:14:25.177Z,84.95
2023-04-09T00:15:30.748Z,85.36
2023-04-09T00:16:25.214Z,85.88
2023-04-09T00:17:23.194Z,85.98
2023-04-09T00:18:23.169Z,86.33
2023-04-09T00:19:23.199Z,86.85
2023-04-09T00:20:23.138Z,86.23
2023-04-09T00:21:23.129Z,86.13
2023-04-09T00:22:23.125Z,86.43
2023-04-09T00:23:23.125Z,86.33
2023-04-09T00:24:23.104Z,87.05
2023-04-09T00:25:23.104Z,86.64
2023-04-09T00:26:23.104Z,86.95
2023-04-09T00:27:23.090Z,86.74
2023-04-09T00:28:23.109Z,86.58
2023-04-09T00:29:23.066Z,87.05
2023-04-09T00:30:23.063Z,86.74
2023-04-09T00:31:23.101Z,86.85
2023-04-09T00:32:23.053Z,87.15
2023-04-09T00:33:23.038Z,86.23
2023-04-09T00:34:23.033Z,86.02
2023-04-09T00:35:24.039Z,86.13
2023-04-09T00:36:24.709Z,86.29
2023-04-09T00:37:23.009Z,86.23
2023-04-09T00:38:23.017Z,86.13
2023-04-09T00:39:22.996Z,85.82
2023-04-09T00:40:23.010Z,86.02
2023-04-09T00:41:23.003Z,85.68
2023-04-09T00:42:22.990Z,85.82
2023-04-09T00:43:22.990Z,85.82
2023-04-09T00:44:22.962Z,85.92
2023-04-09T00:45:24.032Z,85.92
2023-04-09T00:46:22.977Z,86.02
2023-04-09T00:47:23.020Z,85.51
2023-04-09T00:48:22.947Z,85.61
2023-04-09T00:49:22.938Z,85.36
2023-04-09T00:50:22.960Z,85.26
2023-04-09T00:51:22.934Z,85.61
2023-04-09T00:52:22.907Z,85.20
2023-04-09T00:53:22.907Z,84.95
2023-04-09T00:54:22.901Z,85.41
2023-04-09T00:55:22.899Z,85.30
2023-04-09T00:56:22.906Z,85.92
2023-04-09T00:57:22.896Z,85.82
2023-04-09T00:58:22.874Z,85.71
2023-04-09T00:59:22.874Z,85.71
2023-04-09T01:00:22.884Z,85.71
2023-04-09T01:01:22.892Z,85.41
2023-04-09T01:02:23.241Z,85.61
2023-04-09T01:03:22.928Z,85.41
2023-04-09T01:04:22.857Z,85.82
2023-04-09T01:05:22.828Z,85.51
2023-04-09T01:06:22.820Z,85.51
2023-04-09T01:07:22.810Z,85.51
2023-04-09T01:08:22.849Z,85.51
2023-04-09T01:09:22.824Z,85.82
2023-04-09T01:10:22.790Z,85.65
2023-04-09T01:11:22.782Z,85.51
2023-04-09T01:12:22.793Z,86.02
2023-04-09T01:13:22.795Z,85.61
2023-04-09T01:14:22.768Z,86.02
2023-04-09T01:15:22.760Z,85.96
2023-04-09T01:16:22.781Z,86.54
2023-04-09T01:17:22.740Z,86.13
2023-04-09T01:18:22.761Z,85.96
2023-04-09T01:19:22.729Z,86.37
2023-04-09T01:20:22.743Z,86.02
2023-04-09T01:21:22.734Z,86.16
2023-04-09T01:22:22.715Z,86.13
2023-04-09T01:23:22.706Z,86.47
2023-04-09T01:24:22.712Z,86.16
2023-04-09T01:25:22.697Z,86.37
2023-04-09T01:26:22.714Z,85.96
2023-04-09T01:27:22.676Z,86.02
2023-04-09T01:28:22.660Z,86.16
2023-04-09T01:29:22.670Z,86.16
2023-04-09T01:30:22.676Z,86.27
2023-04-09T01:31:22.648Z,86.58
2023-04-09T01:32:22.689Z,85.86
2023-04-09T01:33:22.631Z,85.86
2023-04-09T01:34:22.623Z,85.86
2023-04-09T01:35:22.644Z,85.96
2023-04-09T01:36:22.614Z,86.16
2023-04-09T01:37:22.624Z,85.86
2023-04-09T01:38:22.587Z,86.06
2023-04-09T01:39:22.582Z,85.96
2023-04-09T01:40:22.588Z,86.27
2023-04-09T01:41:22.587Z,86.82
2023-04-09T01:42:22.594Z,86.52
2023-04-09T01:43:22.565Z,87.54
2023-04-09T01:44:22.551Z,87.90
2023-04-09T01:45:22.551Z,88.51
2023-04-09T01:46:22.575Z,88.62
2023-04-09T01:47:22.656Z,88.82
2023-04-09T01:48:22.531Z,88.51
2023-04-09T01:49:22.532Z,88.20
2023-04-09T01:50:22.514Z,88.96
2023-04-09T01:51:22.513Z,89.03
2023-04-09T01:52:22.524Z,89.13
2023-04-09T01:53:22.535Z,88.92
2023-04-09T01:54:22.479Z,89.13
2023-04-09T01:55:22.502Z,89.34
2023-04-09T01:56:22.469Z,88.62
2023-04-09T01:57:22.477Z,88.92
2023-04-09T01:58:22.477Z,88.72
2023-04-09T01:59:22.480Z,89.13
2023-04-09T02:00:22.436Z,89.03
2023-04-09T02:01:22.498Z,89.44
2023-04-09T02:02:22.484Z,89.58
2023-04-09T02:03:22.502Z,89.34
2023-04-09T02:04:22.440Z,89.48
2023-04-09T02:05:22.435Z,89.58
2023-04-09T02:06:22.407Z,89.23
2023-04-09T02:07:22.410Z,89.13
2023-04-09T02:08:22.390Z,89.23
2023-04-09T02:09:22.383Z,89.69
2023-04-09T02:10:22.391Z,89.79
2023-04-09T02:11:22.368Z,89.85
2023-04-09T02:12:22.368Z,89.34
2023-04-09T02:13:22.356Z,89.03
2023-04-09T02:14:22.361Z,89.13
2023-04-09T02:15:22.386Z,89.03
2023-04-09T02:16:22.351Z,88.92
2023-04-09T02:17:22.355Z,88.31
2023-04-09T02:18:22.320Z,88.72
2023-04-09T02:19:22.319Z,88.72
2023-04-09T02:20:22.311Z,88.62
2023-04-09T02:21:22.306Z,89.34
2023-04-09T02:22:22.301Z,89.23
2023-04-09T02:23:22.289Z,88.10
2023-04-09T02:24:22.273Z,89.34
2023-04-09T02:25:22.282Z,88.89
2023-04-09T02:26:22.282Z,88.62
2023-04-09T02:27:22.283Z,89.03
2023-04-09T02:28:22.240Z,89.38
2023-04-09T02:29:22.267Z,89.69
2023-04-09T02:30:22.292Z,89.85
2023-04-09T02:31:22.254Z,90.41
2023-04-09T02:32:22.252Z,90.20
2023-04-09T02:33:22.212Z,90.37
2023-04-09T02:34:22.226Z,89.85
2023-04-09T02:35:22.238Z,90.10
2023-04-09T02:36:22.191Z,89.75
2023-04-09T02:37:22.211Z,89.69
2023-04-09T02:38:22.199Z,89.54
2023-04-09T02:39:22.190Z,89.44
2023-04-09T02:40:22.174Z,89.34
2023-04-09T02:41:22.175Z,89.75
2023-04-09T02:42:22.180Z,89.65
2023-04-09T02:43:22.181Z,89.85
2023-04-09T02:44:22.166Z,89.75
2023-04-09T02:45:22.131Z,89.79
2023-04-09T02:46:22.172Z,89.69
2023-04-09T02:47:22.148Z,89.54
2023-04-09T02:48:22.122Z,89.65
2023-04-09T02:49:22.117Z,89.34
2023-04-09T02:50:22.114Z,89.34
2023-04-09T02:51:22.089Z,89.03
2023-04-09T02:52:22.081Z,88.92
2023-04-09T02:53:22.078Z,88.92
2023-04-09T02:54:22.074Z,89.44
2023-04-09T02:55:22.095Z,89.44
2023-04-09T02:56:22.067Z,89.34
2023-04-09T02:57:22.051Z,89.34
2023-04-09T02:58:22.054Z,89.29
2023-04-09T02:59:22.043Z,89.29
2023-04-09T03:00:22.107Z,88.72
2023-04-09T03:01:22.035Z,88.62
2023-04-09T03:02:23.309Z,88.72
2023-04-09T03:03:22.136Z,88.26
2023-04-09T03:04:22.139Z,88.06
2023-04-09T03:05:21.996Z,87.96
2023-04-09T03:06:21.983Z,87.75
2023-04-09T03:07:21.973Z,87.96
2023-04-09T03:08:21.962Z,88.41
2023-04-09T03:09:21.979Z,88.62
2023-04-09T03:10:21.964Z,88.82
2023-04-09T03:11:21.951Z,88.62
2023-04-09T03:12:21.969Z,89.34
2023-04-09T03:13:21.938Z,88.10
2023-04-09T03:14:21.940Z,88.92
2023-04-09T03:15:21.937Z,88.51
2023-04-09T03:16:21.962Z,88.51
2023-04-09T03:17:21.934Z,88.68
2023-04-09T03:18:21.909Z,87.79
2023-04-09T03:19:21.897Z,87.79
2023-04-09T03:20:21.902Z,87.90
2023-04-09T03:21:21.894Z,88.31
2023-04-09T03:22:21.871Z,87.69
2023-04-09T03:23:21.873Z,87.69
2023-04-09T03:24:21.882Z,87.44
2023-04-09T03:25:21.857Z,87.48
2023-04-09T03:26:21.840Z,86.87
2023-04-09T03:27:21.843Z,86.61
2023-04-09T03:28:21.832Z,88.31
2023-04-09T03:29:21.848Z,88.62
2023-04-09T03:30:21.822Z,89.28
2023-04-09T03:31:21.818Z,89.38
2023-04-09T03:32:21.801Z,89.69
2023-04-09T03:33:21.798Z,89.48
2023-04-09T03:34:21.795Z,89.38
2023-04-09T03:35:21.804Z,89.23
2023-04-09T03:36:21.772Z,88.92
2023-04-09T03:37:21.757Z,88.92
2023-04-09T03:38:22.766Z,88.96
2023-04-09T03:39:21.761Z,88.56
2023-04-09T03:40:21.744Z,88.62
2023-04-09T03:41:21.741Z,88.92
2023-04-09T03:42:21.735Z,88.56
2023-04-09T03:43:21.725Z,88.72
2023-04-09T03:44:21.729Z,88.62
2023-04-09T03:45:21.717Z,88.72
2023-04-09T03:46:21.754Z,88.31
2023-04-09T03:47:21.743Z,87.99
2023-04-09T03:48:21.696Z,87.69
2023-04-09T03:49:21.705Z,87.59
2023-04-09T03:50:21.690Z,87.90
2023-04-09T03:51:21.692Z,87.38
2023-04-09T03:52:21.672Z,87.27
2023-04-09T03:53:21.663Z,88.10
2023-04-09T03:54:21.684Z,87.59
2023-04-09T03:55:21.658Z,87.69
2023-04-09T03:56:21.639Z,87.90
2023-04-09T03:57:21.630Z,87.48
2023-04-09T03:58:21.619Z,86.66
2023-04-09T03:59:21.619Z,86.97
2023-04-09T04:00:21.628Z,87.38
2023-04-09T04:01:21.603Z,87.27
2023-04-09T04:02:21.744Z,87.59
2023-04-09T04:03:21.670Z,88.45
2023-04-09T04:04:23.612Z,88.72
2023-04-09T04:05:22.600Z,88.96
2023-04-09T04:06:21.584Z,89.17
2023-04-09T04:07:21.562Z,89.48
2023-04-09T04:08:21.548Z,89.42
2023-04-09T04:09:21.550Z,89.32
2023-04-09T04:10:21.564Z,89.94
2023-04-09T04:11:21.556Z,89.48
2023-04-09T04:12:21.528Z,89.62
2023-04-09T04:13:21.532Z,89.94
2023-04-09T04:14:21.502Z,90.14
2023-04-09T04:15:22.505Z,90.35
2023-04-09T04:16:21.534Z,90.14
2023-04-09T04:17:21.514Z,91.32
2023-04-09T04:18:21.490Z,91.11
2023-04-09T04:19:21.486Z,91.07
2023-04-09T04:20:21.494Z,90.97
2023-04-09T04:21:21.478Z,90.97
2023-04-09T04:22:21.467Z,91.17
2023-04-09T04:23:21.454Z,91.28
2023-04-09T04:24:21.457Z,90.76
2023-04-09T04:25:21.619Z,91.28
2023-04-09T04:26:21.426Z,90.76
2023-04-09T04:27:21.423Z,90.86
2023-04-09T04:28:21.416Z,90.35
2023-04-09T04:29:21.411Z,90.35
2023-04-09T04:30:21.419Z,91.17
2023-04-09T04:31:21.448Z,91.17
2023-04-09T04:32:21.386Z,91.38
2023-04-09T04:33:21.409Z,91.07
2023-04-09T04:34:21.375Z,91.28
2023-04-09T04:35:21.387Z,90.66
2023-04-09T04:36:21.364Z,90.55
2023-04-09T04:37:21.372Z,91.38
2023-04-09T04:38:21.363Z,91.38
2023-04-09T04:39:21.354Z,91.28
2023-04-09T04:40:21.339Z,91.01
2023-04-09T04:41:21.331Z,91.38
2023-04-09T04:42:21.347Z,91.11
2023-04-09T04:43:21.318Z,91.11
2023-04-09T04:44:21.311Z,91.22
2023-04-09T04:45:21.325Z,91.11
2023-04-09T04:46:21.340Z,91.07
2023-04-09T04:47:21.389Z,91.38
2023-04-09T04:48:21.288Z,91.07
2023-04-09T04:49:21.279Z,90.97
2023-04-09T04:50:21.274Z,91.28
2023-04-09T04:51:21.266Z,91.28
2023-04-09T04:52:21.251Z,90.45
2023-04-09T04:53:21.286Z,89.79
2023-04-09T04:54:21.248Z,90.10
2023-04-09T04:55:21.233Z,89.58
2023-04-09T04:56:21.226Z,89.58
2023-04-09T04:57:21.231Z,89.79
2023-04-09T04:58:21.228Z,89.69
2023-04-09T04:59:21.218Z,89.48
2023-04-09T05:00:21.237Z,89.48
2023-04-09T05:01:21.238Z,89.17
2023-04-09T05:02:21.353Z,89.48
2023-04-09T05:03:21.268Z,89.48
2023-04-09T05:04:21.202Z,89.58
2023-04-09T05:05:21.172Z,89.17
2023-04-09T05:06:21.161Z,89.07
2023-04-09T05:07:21.170Z,89.17
2023-04-09T05:08:21.170Z,88.96
2023-04-09T05:09:22.431Z,89.07
2023-04-09T05:10:22.132Z,89.07
2023-04-09T05:11:21.152Z,89.23
2023-04-09T05:12:21.118Z,88.62
2023-04-09T05:13:21.122Z,88.62
2023-04-09T05:14:21.106Z,88.62
2023-04-09T05:15:22.105Z,88.72
2023-04-09T05:16:21.175Z,88.86
2023-04-09T05:17:21.099Z,88.72
2023-04-09T05:18:21.081Z,88.72
2023-04-09T05:19:21.096Z,88.72
2023-04-09T05:20:21.082Z,88.62
2023-04-09T05:21:21.131Z,88.62
2023-04-09T05:22:21.044Z,88.72
2023-04-09T05:23:21.033Z,88.51
2023-04-09T05:24:21.066Z,88.57
2023-04-09T05:25:21.037Z,87.99
2023-04-09T05:26:21.110Z,87.69
2023-04-09T05:27:21.036Z,87.99
2023-04-09T05:28:21.025Z,87.79
2023-04-09T05:29:21.005Z,87.79
2023-04-09T05:30:21.009Z,87.99
2023-04-09T05:31:20.990Z,87.90
2023-04-09T05:32:21.007Z,88.72
2023-04-09T05:33:20.977Z,88.72
2023-04-09T05:34:20.961Z,88.62
2023-04-09T05:35:20.985Z,88.92
2023-04-09T05:36:20.960Z,88.92
2023-04-09T05:37:20.951Z,88.82
2023-04-09T05:38:20.942Z,88.62
2023-04-09T05:39:20.936Z,88.26
2023-04-09T05:40:20.932Z,87.54
2023-04-09T05:41:20.925Z,87.54
2023-04-09T05:42:20.914Z,87.51
2023-04-09T05:43:20.910Z,86.68
2023-04-09T05:44:20.892Z,87.09
2023-04-09T05:45:21.918Z,87.71
2023-04-09T05:46:20.980Z,87.51
2023-04-09T05:47:21.002Z,87.09
2023-04-09T05:48:20.880Z,86.85
2023-04-09T05:49:20.872Z,86.95
2023-04-09T05:50:20.886Z,86.64
2023-04-09T05:51:20.894Z,86.02
2023-04-09T05:52:20.850Z,86.02
2023-04-09T05:53:20.866Z,86.02
2023-04-09T05:54:20.839Z,85.88
2023-04-09T05:55:20.851Z,85.57
2023-04-09T05:56:20.818Z,85.57
2023-04-09T05:57:20.820Z,85.43
2023-04-09T05:58:20.812Z,85.47
2023-04-09T05:59:20.813Z,85.02
2023-04-09T06:00:20.813Z,84.71
2023-04-09T06:01:20.790Z,84.23
2023-04-09T06:02:21.048Z,84.75
2023-04-09T06:03:21.061Z,85.16
2023-04-09T06:04:20.980Z,85.06
2023-04-09T06:05:20.794Z,85.57
2023-04-09T06:06:20.754Z,85.22
2023-04-09T06:07:20.761Z,85.22
2023-04-09T06:08:20.745Z,84.71
2023-04-09T06:09:20.740Z,84.98
2023-04-09T06:10:20.738Z,85.02
2023-04-09T06:11:20.719Z,84.36
2023-04-09T06:12:20.736Z,84.26
2023-04-09T06:13:20.710Z,84.05
2023-04-09T06:14:20.709Z,83.50
2023-04-09T06:15:20.720Z,83.81
2023-04-09T06:16:20.771Z,83.33
2023-04-09T06:17:20.727Z,82.99
2023-04-09T06:18:20.669Z,82.27
2023-04-09T06:19:20.672Z,82.17
2023-04-09T06:20:20.675Z,82.47
2023-04-09T06:21:20.663Z,82.75
2023-04-09T06:22:20.647Z,82.75
2023-04-09T06:23:20.703Z,82.64
2023-04-09T06:24:20.624Z,82.03
2023-04-09T06:25:20.655Z,82.13
2023-04-09T06:26:20.615Z,82.09
2023-04-09T06:27:20.610Z,82.19
2023-04-09T06:28:20.602Z,82.19
2023-04-09T06:29:22.610Z,81.48
2023-04-09T06:30:20.609Z,80.65
2023-04-09T06:31:20.595Z,81.34
2023-04-09T06:32:20.580Z,80.92
2023-04-09T06:33:20.582Z,80.92
2023-04-09T06:34:20.555Z,80.82
2023-04-09T06:35:20.650Z,80.99
2023-04-09T06:36:20.540Z,81.40
2023-04-09T06:37:20.551Z,81.36
2023-04-09T06:38:20.542Z,81.05
2023-04-09T06:39:20.532Z,80.03
2023-04-09T06:40:22.907Z,79.27
2023-04-09T06:41:21.522Z,79.75
2023-04-09T06:42:20.507Z,78.83
2023-04-09T06:43:20.514Z,78.72
2023-04-09T06:44:20.488Z,78.42
2023-04-09T06:45:20.495Z,77.91
2023-04-09T06:46:20.544Z,76.64
2023-04-09T06:47:20.486Z,77.32
2023-04-09T06:48:20.484Z,77.42
2023-04-09T06:49:20.467Z,77.94
2023-04-09T06:50:20.470Z,77.08
2023-04-09T06:51:20.447Z,75.92
2023-04-09T06:52:20.448Z,76.12
2023-04-09T06:53:20.467Z,77.08
2023-04-09T06:54:20.463Z,77.72
2023-04-09T06:55:20.750Z,74.96
2023-04-09T06:56:20.430Z,74.99
2023-04-09T06:57:20.415Z,73.91
2023-04-09T06:58:20.406Z,71.12
2023-04-09T06:59:20.419Z,71.67
2023-04-09T07:00:20.425Z,67.50
2023-04-09T07:01:20.441Z,69.54
2023-04-09T07:02:20.543Z,64.95
2023-04-09T07:03:20.460Z,62.76
2023-04-09T07:04:20.542Z,63.41
2023-04-09T07:05:20.362Z,64.06
2023-04-09T07:06:20.362Z,61.03
2023-04-09T07:07:20.370Z,62.08
2023-04-09T07:08:20.354Z,60.13
2023-04-09T07:09:20.353Z,58.75
2023-04-09T07:10:20.348Z,55.73
2023-04-09T07:11:20.337Z,56.99
2023-04-09T07:12:20.314Z,57.96
2023-04-09T07:13:20.318Z,60.27
2023-04-09T07:14:20.303Z,60.63
2023-04-09T07:15:20.316Z,61.49
2023-04-09T07:16:20.341Z,62.52
2023-04-09T07:17:20.306Z,61.11
2023-04-09T07:18:20.281Z,55.95
2023-04-09T07:19:20.280Z,58.23
2023-04-09T07:20:20.696Z,60.49
2023-04-09T07:21:20.249Z,59.81
2023-04-09T07:22:20.254Z,61.02
2023-04-09T07:23:20.241Z,61.43
2023-04-09T07:24:20.244Z,60.65
2023-04-09T07:25:20.232Z,61.53
2023-04-09T07:26:20.225Z,61.80
2023-04-09T07:27:20.227Z,59.34
2023-04-09T07:28:20.207Z,59.39
2023-04-09T07:29:20.229Z,56.78
2023-04-09T07:30:20.199Z,56.81
2023-04-09T07:31:20.213Z,57.84
2023-04-09T07:32:20.189Z,53.72
2023-04-09T07:33:20.332Z,55.32
2023-04-09T07:34:20.188Z,56.92
2023-04-09T07:35:20.176Z,58.76
2023-04-09T07:36:20.196Z,58.90
2023-04-09T07:37:20.144Z,59.30
2023-04-09T07:38:20.146Z,59.58
2023-04-09T07:39:20.181Z,57.35
2023-04-09T07:40:20.132Z,57.55
2023-04-09T07:41:20.123Z,58.82
2023-04-09T07:42:20.116Z,59.50
2023-04-09T07:43:21.426Z,59.88
2023-04-09T07:44:21.100Z,58.76
2023-04-09T07:45:20.098Z,58.47
2023-04-09T07:46:20.128Z,57.86
2023-04-09T07:47:20.145Z,57.15
2023-04-09T07:48:20.078Z,56.86
2023-04-09T07:49:20.075Z,56.26
2023-04-09T07:50:20.068Z,56.08
2023-04-09T07:51:20.066Z,56.79
2023-04-09T07:52:20.056Z,55.90
2023-04-09T07:53:20.037Z,54.46
2023-04-09T07:54:20.048Z,54.58
2023-04-09T07:55:20.055Z,54.05
2023-04-09T07:56:20.029Z,50.88
2023-04-09T07:57:20.034Z,51.08
2023-04-09T07:58:20.006Z,52.22
2023-04-09T07:59:21.019Z,51.30
2023-04-09T08:00:20.004Z,55.44
2023-04-09T08:01:19.995Z,56.28
2023-04-09T08:02:20.060Z,55.29
2023-04-09T08:03:20.210Z,54.16
2023-04-09T08:04:20.133Z,53.75
2023-04-09T08:05:20.303Z,53.60
2023-04-09T08:06:19.969Z,53.83
2023-04-09T08:07:19.947Z,50.63
2023-04-09T08:08:19.964Z,49.57
2023-04-09T08:09:19.958Z,51.43
2023-04-09T08:10:19.940Z,51.20
2023-04-09T08:11:19.924Z,52.31
2023-04-09T08:12:19.940Z,50.85
2023-04-09T08:13:19.940Z,48.87
2023-04-09T08:14:19.923Z,49.25
2023-04-09T08:15:19.898Z,49.98
2023-04-09T08:16:19.986Z,47.91
2023-04-09T08:17:19.908Z,45.54
2023-04-09T08:18:19.879Z,44.84
2023-04-09T08:19:19.883Z,43.32
2023-04-09T08:20:19.865Z,42.35
2023-04-09T08:21:19.866Z,43.52
2023-04-09T08:22:19.855Z,45.32
2023-04-09T08:23:19.840Z,44.76
2023-04-09T08:24:19.864Z,45.65
2023-04-09T08:25:19.839Z,46.11
2023-04-09T08:26:19.826Z,46.81
2023-04-09T08:27:19.830Z,47.69
2023-04-09T08:28:19.822Z,48.72
2023-04-09T08:29:19.818Z,48.99
2023-04-09T08:30:19.825Z,49.24
2023-04-09T08:31:19.822Z,50.82
2023-04-09T08:32:19.948Z,49.85
2023-04-09T08:33:19.781Z,50.08
2023-04-09T08:34:19.780Z,46.49
2023-04-09T08:35:19.807Z,46.97
2023-04-09T08:36:19.896Z,45.20
2023-04-09T08:37:19.773Z,43.35
2023-04-09T08:38:19.793Z,43.82
2023-04-09T08:39:19.751Z,41.71
2023-04-09T08:40:19.742Z,42.91
2023-04-09T08:41:19.729Z,44.74
2023-04-09T08:42:19.735Z,42.69
2023-04-09T08:43:19.751Z,41.38
2023-04-09T08:44:19.716Z,41.77
2023-04-09T08:45:19.706Z,41.39
2023-04-09T08:46:19.773Z,42.07
2023-04-09T08:47:19.697Z,41.66
2023-04-09T08:48:19.810Z,40.28
2023-04-09T08:49:19.695Z,40.83
2023-04-09T08:50:19.693Z,43.50
2023-04-09T08:51:19.671Z,43.04
2023-04-09T08:52:19.665Z,41.89
2023-04-09T08:53:19.647Z,42.52
2023-04-09T08:54:19.653Z,42.77
2023-04-09T08:55:19.651Z,40.44
2023-04-09T08:56:19.636Z,39.18
2023-04-09T08:57:19.641Z,40.73
2023-04-09T08:58:19.624Z,41.66
2023-04-09T08:59:19.625Z,42.11
2023-04-09T09:00:19.625Z,41.25
2023-04-09T09:01:19.634Z,39.32
2023-04-09T09:02:19.616Z,37.94
2023-04-09T09:03:19.621Z,38.98
2023-04-09T09:04:19.652Z,39.69
2023-04-09T09:05:19.587Z,40.69
2023-04-09T09:06:19.564Z,40.19
2023-04-09T09:07:19.567Z,41.69
2023-04-09T09:08:19.555Z,40.99
2023-04-09T09:09:19.567Z,39.59
2023-04-09T09:10:19.587Z,39.89
2023-04-09T09:11:19.535Z,40.52
2023-04-09T09:12:19.532Z,40.53
2023-04-09T09:13:19.554Z,40.55
2023-04-09T09:14:19.512Z,40.91
2023-04-09T09:15:19.507Z,43.54
2023-04-09T09:16:19.541Z,45.57
2023-04-09T09:17:19.513Z,45.05
2023-04-09T09:18:19.505Z,45.74
2023-04-09T09:19:19.478Z,48.33
2023-04-09T09:20:19.501Z,49.81
2023-04-09T09:21:19.459Z,49.78
2023-04-09T09:22:19.456Z,52.36
2023-04-09T09:23:19.465Z,52.06
2023-04-09T09:24:19.437Z,52.08
2023-04-09T09:25:19.440Z,53.07
2023-04-09T09:26:19.436Z,52.03
2023-04-09T09:27:19.414Z,52.56
2023-04-09T09:28:19.450Z,52.44
2023-04-09T09:29:19.422Z,54.00
2023-04-09T09:30:19.448Z,57.23
2023-04-09T09:31:19.484Z,57.64
2023-04-09T09:32:19.467Z,57.56
2023-04-09T09:33:19.400Z,57.79
2023-04-09T09:34:19.407Z,58.74
2023-04-09T09:35:19.374Z,58.92
2023-04-09T09:36:19.368Z,59.39
2023-04-09T09:37:19.380Z,59.75
2023-04-09T09:38:19.401Z,60.39
2023-04-09T09:39:19.376Z,61.11
2023-04-09T09:40:19.353Z,60.30
2023-04-09T09:41:19.340Z,60.32
2023-04-09T09:42:19.348Z,59.91
2023-04-09T09:43:19.346Z,59.91
2023-04-09T09:44:19.347Z,59.89
2023-04-09T09:45:19.334Z,59.38
2023-04-09T09:46:19.355Z,58.56
2023-04-09T09:47:19.297Z,59.17
2023-04-09T09:48:19.301Z,60.42
2023-04-09T09:49:19.279Z,60.09
2023-04-09T09:50:19.284Z,59.58
2023-04-09T09:51:19.271Z,58.67
2023-04-09T09:52:19.271Z,58.80
2023-04-09T09:53:19.260Z,59.10
2023-04-09T09:54:19.258Z,59.41
2023-04-09T09:55:19.258Z,58.49
2023-04-09T09:56:19.245Z,58.46
2023-04-09T09:57:19.288Z,57.98
2023-04-09T09:58:19.235Z,57.85
2023-04-09T09:59:19.217Z,58.97
2023-04-09T10:00:19.537Z,57.85
2023-04-09T10:01:19.261Z,58.05
2023-04-09T10:02:19.262Z,58.69
2023-04-09T10:03:19.255Z,58.82
2023-04-09T10:04:19.178Z,59.12
2023-04-09T10:05:19.196Z,59.71
2023-04-09T10:06:19.173Z,59.20
2023-04-09T10:07:19.174Z,59.74
2023-04-09T10:08:19.156Z,59.87
2023-04-09T10:09:19.141Z,59.94
2023-04-09T10:10:19.145Z,59.56
2023-04-09T10:11:19.175Z,59.97
2023-04-09T10:12:19.150Z,60.05
2023-04-09T10:13:19.114Z,59.94
2023-04-09T10:14:19.114Z,59.84
2023-04-09T10:15:19.106Z,60.96
2023-04-09T10:16:19.294Z,60.58
2023-04-09T10:17:19.103Z,61.09
2023-04-09T10:18:19.077Z,61.40
2023-04-09T10:19:19.083Z,61.91
2023-04-09T10:20:19.065Z,62.32
2023-04-09T10:21:19.054Z,61.91
2023-04-09T10:22:19.061Z,62.42
2023-04-09T10:23:19.051Z,61.88
2023-04-09T10:24:19.043Z,62.11
2023-04-09T10:25:19.051Z,61.50
2023-04-09T10:26:19.108Z,60.38
2023-04-09T10:27:19.017Z,60.00
2023-04-09T10:28:19.024Z,60.21
2023-04-09T10:29:19.033Z,61.32
2023-04-09T10:30:18.991Z,61.53
2023-04-09T10:31:19.034Z,62.96
2023-04-09T10:32:19.047Z,62.96
2023-04-09T10:33:21.487Z,62.17
2023-04-09T10:34:21.476Z,62.58
2023-04-09T10:35:20.984Z,62.68
2023-04-09T10:36:18.995Z,62.78
2023-04-09T10:37:18.973Z,62.51
2023-04-09T10:38:18.941Z,64.04
2023-04-09T10:39:18.924Z,64.42
2023-04-09T10:40:18.940Z,64.52
2023-04-09T10:41:18.916Z,63.81
2023-04-09T10:42:18.943Z,63.93
2023-04-09T10:43:18.919Z,64.72
2023-04-09T10:44:18.901Z,64.31
2023-04-09T10:45:20.112Z,64.52
2023-04-09T10:46:18.920Z,62.48
2023-04-09T10:47:18.881Z,62.76
2023-04-09T10:48:18.918Z,62.35
2023-04-09T10:49:18.881Z,60.53
2023-04-09T10:50:18.882Z,62.27
2023-04-09T10:51:18.861Z,62.35
2023-04-09T10:52:18.952Z,63.54
2023-04-09T10:53:18.857Z,62.80
2023-04-09T10:54:18.835Z,62.74
2023-04-09T10:55:18.843Z,62.40
2023-04-09T10:56:18.824Z,61.83
2023-04-09T10:57:18.902Z,60.69
2023-04-09T10:58:18.823Z,59.41
2023-04-09T10:59:18.815Z,58.40
2023-04-09T11:00:18.883Z,57.73
2023-04-09T11:01:18.842Z,56.11
2023-04-09T11:02:18.849Z,57.35
2023-04-09T11:03:18.918Z,57.38
2023-04-09T11:04:18.815Z,57.99
2023-04-09T11:05:18.765Z,57.99
2023-04-09T11:06:18.743Z,57.41
2023-04-09T11:07:18.751Z,57.41
2023-04-09T11:08:18.739Z,57.21
2023-04-09T11:09:18.723Z,57.31
2023-04-09T11:10:18.723Z,58.33
2023-04-09T11:11:18.727Z,58.94
2023-04-09T11:12:18.749Z,57.21
2023-04-09T11:13:18.698Z,56.44
2023-04-09T11:14:18.690Z,56.04
2023-04-09T11:15:18.687Z,55.91
2023-04-09T11:16:24.706Z,56.34
2023-04-09T11:17:19.665Z,55.40
2023-04-09T11:18:18.660Z,54.49
2023-04-09T11:19:18.670Z,54.64
2023-04-09T11:20:18.643Z,53.70
2023-04-09T11:21:18.640Z,53.19
2023-04-09T11:22:18.698Z,52.18
2023-04-09T11:23:18.637Z,52.46
2023-04-09T11:24:18.625Z,52.66
2023-04-09T11:25:18.612Z,51.42
2023-04-09T11:26:18.648Z,50.79
2023-04-09T11:27:18.617Z,51.09
2023-04-09T11:28:18.579Z,51.07
2023-04-09T11:29:18.576Z,50.24
2023-04-09T11:30:18.565Z,49.41
2023-04-09T11:31:18.590Z,49.48
2023-04-09T11:32:18.583Z,49.87
2023-04-09T11:33:19.951Z,49.26
2023-04-09T11:34:19.545Z,47.72
2023-04-09T11:35:18.558Z,49.31
2023-04-09T11:36:18.580Z,48.03
2023-04-09T11:37:18.521Z,48.54
2023-04-09T11:38:18.530Z,46.93
2023-04-09T11:39:18.516Z,47.23
2023-04-09T11:40:18.552Z,44.71
2023-04-09T11:41:18.497Z,43.71
2023-04-09T11:42:18.504Z,44.53
2023-04-09T11:43:18.542Z,44.93
2023-04-09T11:44:18.484Z,45.76
2023-04-09T11:45:18.506Z,45.16
2023-04-09T11:46:18.495Z,46.67
2023-04-09T11:47:18.482Z,46.95
2023-04-09T11:48:18.640Z,46.60
2023-04-09T11:49:18.446Z,48.18
2023-04-09T11:50:19.474Z,43.88
2023-04-09T11:51:18.525Z,40.87
2023-04-09T11:52:18.469Z,40.61
2023-04-09T11:53:18.420Z,40.83
2023-04-09T11:54:18.441Z,40.77
2023-04-09T11:55:18.805Z,42.40
2023-04-09T11:56:18.440Z,43.20
2023-04-09T11:57:18.400Z,43.80
2023-04-09T11:58:18.429Z,40.99
2023-04-09T11:59:18.386Z,41.11
2023-04-09T12:00:18.387Z,41.27
2023-04-09T12:01:18.396Z,40.30
2023-04-09T12:02:18.535Z,41.20
2023-04-09T12:03:18.544Z,40.82
2023-04-09T12:04:18.759Z,41.65
2023-04-09T12:05:18.403Z,41.67
2023-04-09T12:06:18.355Z,41.91
2023-04-09T12:07:18.364Z,43.67
2023-04-09T12:08:18.334Z,43.08
2023-04-09T12:09:18.333Z,43.10
2023-04-09T12:10:18.316Z,46.95
2023-04-09T12:11:18.317Z,46.44
2023-04-09T12:12:18.306Z,44.09
2023-04-09T12:13:18.293Z,44.17
2023-04-09T12:14:18.306Z,43.75
2023-04-09T12:15:18.279Z,43.80
2023-04-09T12:16:18.342Z,45.20
2023-04-09T12:17:18.267Z,45.07
2023-04-09T12:18:18.266Z,44.81
2023-04-09T12:19:18.269Z,45.47
2023-04-09T12:20:18.264Z,44.38
2023-04-09T12:21:19.315Z,43.74
2023-04-09T12:22:18.237Z,40.27
2023-04-09T12:23:18.225Z,40.13
2023-04-09T12:24:18.226Z,38.98
2023-04-09T12:25:18.230Z,37.74
2023-04-09T12:26:18.220Z,36.52
2023-04-09T12:27:18.201Z,36.58
2023-04-09T12:28:18.616Z,38.06
2023-04-09T12:29:18.189Z,37.46
2023-04-09T12:30:18.192Z,35.49
2023-04-09T12:31:18.206Z,35.55
2023-04-09T12:32:18.201Z,36.08
2023-04-09T12:33:18.165Z,36.02
2023-04-09T12:34:18.197Z,37.22
2023-04-09T12:35:18.165Z,38.92
2023-04-09T12:36:18.163Z,39.75
2023-04-09T12:37:18.154Z,40.15
2023-04-09T12:38:18.131Z,41.39
2023-04-09T12:39:18.123Z,39.48
2023-04-09T12:40:18.120Z,39.36
2023-04-09T12:41:18.124Z,39.64
2023-04-09T12:42:18.161Z,40.03
2023-04-09T12:43:18.114Z,39.21
2023-04-09T12:44:18.099Z,38.18
2023-04-09T12:45:18.106Z,38.42
2023-04-09T12:46:18.171Z,39.42
2023-04-09T12:47:18.091Z,38.34
2023-04-09T12:48:18.073Z,38.46
2023-04-09T12:49:18.059Z,39.58
2023-04-09T12:50:18.077Z,38.40
2023-04-09T12:51:18.060Z,39.32
2023-04-09T12:52:18.048Z,40.97